Time;durP1;ratioP1;P1;durP2;ratioP2;P2;SDS_P1;SDS_P2;PMS_P1;PMS_P2;Temp;Humidity;BMP_temperature;BMP_pressure;BME280_temperature;BME280_humidity;BME280_pressure;Samples;Min_cycle;Max_cycle;Signal;HPM_P1;HPM_P2
2022/05/01 00:01:50;;;;;;;22.70;9.38;;;;;;;;;;5092805;28;20031;-39
2022/05/01 00:04:16;;;;;;;23.15;9.52;;;;;;;;;;5093024;28;20024;-39
2022/05/01 00:06:41;;;;;;;30.02;10.57;;;;;;;;;;5093032;28;20375;-39
2022/05/01 00:09:06;;;;;;;22.85;10.55;;;;;;;;;;5092603;28;20031;-39
2022/05/01 00:11:32;;;;;;;17.83;9.32;;;;;;;;;;5092672;28;20039;-39
2022/05/01 00:13:57;;;;;;;18.67;9.32;;;;;;;;;;5092990;28;20483;-39
2022/05/01 00:16:23;;;;;;;26.27;9.05;;;;;;;;;;5092512;28;20020;-40
2022/05/01 00:18:48;;;;;;;26.73;10.38;;;;;;;;;;5092697;28;20024;-39
2022/05/01 00:21:14;;;;;;;24.85;10.35;;;;;;;;;;5092711;28;20094;-39
2022/05/01 00:23:39;;;;;;;18.77;9.50;;;;;;;;;;5092604;28;20055;-39
2022/05/01 00:26:06;;;;;;;24.58;10.43;;;;;;;;;;5092373;28;20052;-39
2022/05/01 00:28:32;;;;;;;21.67;8.57;;;;;;;;;;5092774;28;20043;-39
2022/05/01 00:30:57;;;;;;;21.38;10.07;;;;;;;;;;5092572;28;20046;-39
2022/05/01 00:38:50;;;;;;;29.27;10.05;;;;;;;;;;5093743;28;20026;-39
2022/05/01 00:41:16;;;;;;;26.13;9.73;;;;;;;;;;5096310;28;20020;-39
2022/05/01 00:43:56;;;;;;;28.05;10.20;;;;;;;;;;5096301;28;20379;-39
2022/05/01 00:46:23;;;;;;;22.00;10.15;;;;;;;;;;5096245;28;20028;-39
2022/05/01 00:48:49;;;;;;;17.73;8.85;;;;;;;;;;5096129;28;20386;-40
2022/05/01 00:51:14;;;;;;;24.23;9.93;;;;;;;;;;5095617;28;20052;-39
2022/05/01 00:53:39;;;;;;;24.40;8.88;;;;;;;;;;5096117;28;20087;-39
2022/05/01 00:56:06;;;;;;;17.60;8.90;;;;;;;;;;5096253;28;20042;-39
2022/05/01 00:58:31;;;;;;;12.82;8.40;;;;;;;;;;5096370;28;20067;-39
2022/05/01 01:00:56;;;;;;;17.48;9.10;;;;;;;;;;5095893;28;20448;-39
2022/05/01 01:03:22;;;;;;;22.80;9.63;;;;;;;;;;5096062;28;20016;-39
2022/05/01 01:05:47;;;;;;;28.05;10.15;;;;;;;;;;5095608;28;20371;-39
2022/05/01 01:08:12;;;;;;;25.88;10.00;;;;;;;;;;5096054;28;20047;-39
2022/05/01 01:10:38;;;;;;;25.60;9.07;;;;;;;;;;5095820;28;20408;-39
2022/05/01 01:13:03;;;;;;;23.27;9.88;;;;;;;;;;5095732;28;20020;-39
2022/05/01 01:15:29;;;;;;;20.48;9.85;;;;;;;;;;5095553;28;20024;-39
2022/05/01 01:17:55;;;;;;;23.50;9.88;;;;;;;;;;5095562;28;20024;-39
2022/05/01 01:20:21;;;;;;;32.42;10.75;;;;;;;;;;5095296;28;20496;-39
2022/05/01 01:22:48;;;;;;;26.95;9.00;;;;;;;;;;5095593;28;20077;-39
2022/05/01 01:25:14;;;;;;;23.83;9.60;;;;;;;;;;5095542;28;20091;-39
2022/05/01 01:27:40;;;;;;;24.80;9.88;;;;;;;;;;5095431;28;20050;-39
2022/05/01 01:32:50;;;;;;;26.08;9.13;;;;;;;;;;5095420;28;20073;-39
2022/05/01 01:35:16;;;;;;;29.67;10.25;;;;;;;;;;5095471;28;20405;-39
2022/05/01 01:37:44;;;;;;;29.80;9.50;;;;;;;;;;5095400;28;20020;-39
2022/05/01 01:40:12;;;;;;;25.03;9.10;;;;;;;;;;5095171;28;20020;-39
2022/05/01 01:42:39;;;;;;;23.13;9.98;;;;;;;;;;5095145;28;20317;-39
2022/05/01 01:45:07;;;;;;;20.83;8.32;;;;;;;;;;5094974;28;20031;-39
2022/05/01 01:47:33;;;;;;;21.55;9.07;;;;;;;;;;5094790;28;20016;-39
2022/05/01 01:49:58;;;;;;;19.42;8.05;;;;;;;;;;5094573;28;20502;-39
2022/05/01 01:52:23;;;;;;;17.48;8.50;;;;;;;;;;5094990;28;20016;-39
2022/05/01 01:54:49;;;;;;;17.98;8.18;;;;;;;;;;5095052;28;20073;-39
2022/05/01 01:57:14;;;;;;;22.45;8.80;;;;;;;;;;5094815;28;20016;-39
2022/05/01 01:59:39;;;;;;;27.30;10.23;;;;;;;;;;5094679;28;20023;-39
2022/05/01 02:02:04;;;;;;;22.35;8.82;;;;;;;;;;5094608;28;20509;-41
2022/05/01 02:04:30;;;;;;;18.33;9.23;;;;;;;;;;5094659;28;20016;-39
2022/05/01 02:06:56;;;;;;;27.92;9.45;;;;;;;;;;5094531;28;20061;-39
2022/05/01 02:09:22;;;;;;;21.13;8.43;;;;;;;;;;5094724;28;20051;-39
2022/05/01 02:11:47;;;;;;;35.78;10.30;;;;;;;;;;5094437;28;20035;-39
2022/05/01 02:14:13;;;;;;;30.25;10.25;;;;;;;;;;5094501;28;20175;-39
2022/05/01 02:16:39;;;;;;;27.63;10.05;;;;;;;;;;5095178;28;20016;-40
2022/05/01 02:19:05;;;;;;;22.70;9.32;;;;;;;;;;5094283;28;20023;-39
2022/05/01 02:21:36;;;;;;;17.95;8.93;;;;;;;;;;5094576;28;20016;-39
2022/05/01 02:24:05;;;;;;;16.58;8.00;;;;;;;;;;5094313;28;20111;-39
2022/05/01 02:26:30;;;;;;;17.45;8.43;;;;;;;;;;5094298;28;20383;-39
2022/05/01 02:28:57;;;;;;;15.20;8.13;;;;;;;;;;5094083;28;20027;-39
2022/05/01 02:31:22;;;;;;;17.92;7.85;;;;;;;;;;5093933;28;20542;-39
2022/05/01 02:33:47;;;;;;;27.20;9.70;;;;;;;;;;5094168;28;20099;-39
2022/05/01 02:36:15;;;;;;;27.70;10.30;;;;;;;;;;5093982;28;20030;-39
2022/05/01 02:38:41;;;;;;;26.08;8.88;;;;;;;;;;5094265;28;20024;-39
2022/05/01 02:41:06;;;;;;;24.58;9.52;;;;;;;;;;5093967;28;20520;-39
2022/05/01 02:43:31;;;;;;;30.30;9.40;;;;;;;;;;5093970;28;20020;-39
2022/05/01 02:45:57;;;;;;;25.25;9.38;;;;;;;;;;5093702;28;20414;-39
2022/05/01 02:48:22;;;;;;;26.83;9.75;;;;;;;;;;5093572;28;20091;-39
2022/05/01 02:50:47;;;;;;;22.77;9.82;;;;;;;;;;5093603;28;20139;-39
2022/05/01 02:53:12;;;;;;;26.90;9.35;;;;;;;;;;5093915;28;20059;-39
2022/05/01 02:55:38;;;;;;;24.30;9.75;;;;;;;;;;5093793;28;20090;-39
2022/05/01 02:58:03;;;;;;;28.23;9.70;;;;;;;;;;5093516;28;20077;-39
2022/05/01 03:00:28;;;;;;;19.40;8.48;;;;;;;;;;5093477;28;20020;-39
2022/05/01 03:02:57;;;;;;;17.92;8.82;;;;;;;;;;5092662;28;20016;-39
2022/05/01 03:05:24;;;;;;;26.93;9.20;;;;;;;;;;5093734;28;20027;-39
2022/05/01 03:07:49;;;;;;;21.98;9.00;;;;;;;;;;5093465;28;20016;-39
2022/05/01 03:10:14;;;;;;;26.20;9.20;;;;;;;;;;5093597;28;20459;-39
2022/05/01 03:12:40;;;;;;;24.23;8.55;;;;;;;;;;5093384;28;20024;-39
2022/05/01 03:15:06;;;;;;;31.05;9.82;;;;;;;;;;5093310;28;20512;-39
2022/05/01 03:22:10;;;;;;;20.38;8.88;;;;;;;;;;5093115;28;20425;-39
2022/05/01 03:23:00;;;;;;;19.48;9.00;;;;;;;;;;5093343;28;20023;-39
2022/05/01 03:25:26;;;;;;;21.02;9.10;;;;;;;;;;5093254;28;20024;-39
2022/05/01 03:27:52;;;;;;;28.60;8.90;;;;;;;;;;5093076;28;20356;-39
2022/05/01 03:30:19;;;;;;;27.98;9.18;;;;;;;;;;5093370;28;20034;-39
2022/05/01 03:32:45;;;;;;;23.85;9.02;;;;;;;;;;5092993;28;20455;-39
2022/05/01 03:35:10;;;;;;;23.25;9.10;;;;;;;;;;5093074;28;20020;-39
2022/05/01 03:37:36;;;;;;;24.75;9.63;;;;;;;;;;5093199;28;20431;-39
2022/05/01 03:40:01;;;;;;;30.38;11.48;;;;;;;;;;5092893;28;20550;-39
2022/05/01 03:42:27;;;;;;;27.55;10.10;;;;;;;;;;5093083;28;20421;-39
2022/05/01 03:44:52;;;;;;;21.20;9.95;;;;;;;;;;5093128;28;20499;-39
2022/05/01 03:47:18;;;;;;;31.45;10.48;;;;;;;;;;5093037;28;20038;-39
2022/05/01 03:49:44;;;;;;;29.25;10.65;;;;;;;;;;5092963;28;20084;-39
2022/05/01 03:52:09;;;;;;;33.13;10.80;;;;;;;;;;5092854;28;20044;-39
2022/05/01 03:54:35;;;;;;;28.77;9.43;;;;;;;;;;5092822;28;20039;-39
2022/05/01 03:57:02;;;;;;;19.13;8.23;;;;;;;;;;5092723;28;20490;-39
2022/05/01 03:59:27;;;;;;;22.63;9.90;;;;;;;;;;5092649;28;20024;-39
2022/05/01 04:01:52;;;;;;;30.05;11.15;;;;;;;;;;5092901;28;20020;-39
2022/05/01 04:04:19;;;;;;;37.42;12.10;;;;;;;;;;5092771;28;20492;-39
2022/05/01 04:06:44;;;;;;;31.38;11.05;;;;;;;;;;5092577;28;20374;-39
2022/05/01 04:09:12;;;;;;;22.15;9.85;;;;;;;;;;5093334;28;20024;-39
2022/05/01 04:11:37;;;;;;;30.30;10.88;;;;;;;;;;5092524;28;20036;-39
2022/05/01 04:14:02;;;;;;;24.30;10.73;;;;;;;;;;5095773;28;20111;-39
2022/05/01 04:16:28;;;;;;;19.45;9.80;;;;;;;;;;5096912;28;20031;-39
2022/05/01 04:18:53;;;;;;;23.95;10.50;;;;;;;;;;5096942;28;20474;-39
2022/05/01 04:21:19;;;;;;;28.90;11.25;;;;;;;;;;5096684;28;20503;-39
2022/05/01 04:23:44;;;;;;;29.13;11.02;;;;;;;;;;5096766;28;20026;-39
2022/05/01 04:26:09;;;;;;;34.38;12.15;;;;;;;;;;5096749;28;20020;-39
2022/05/01 04:28:35;;;;;;;26.42;11.32;;;;;;;;;;5096348;28;20398;-39
2022/05/01 04:31:00;;;;;;;23.08;10.27;;;;;;;;;;5096618;28;20127;-39
2022/05/01 04:33:25;;;;;;;24.73;10.90;;;;;;;;;;5096375;28;20048;-39
2022/05/01 04:35:51;;;;;;;30.92;11.18;;;;;;;;;;5096595;28;20031;-39
2022/05/01 04:38:17;;;;;;;30.73;11.57;;;;;;;;;;5096312;28;20020;-39
2022/05/01 04:40:47;;;;;;;19.90;9.43;;;;;;;;;;5096384;28;20020;-39
2022/05/01 04:43:13;;;;;;;31.80;11.32;;;;;;;;;;5096226;28;20471;-39
2022/05/01 04:45:40;;;;;;;27.35;11.00;;;;;;;;;;5096007;28;20012;-39
2022/05/01 04:48:06;;;;;;;29.10;11.07;;;;;;;;;;5096365;28;20020;-39
2022/05/01 04:50:31;;;;;;;26.45;11.07;;;;;;;;;;5096056;28;20032;-39
2022/05/01 04:52:57;;;;;;;26.27;11.57;;;;;;;;;;5096042;28;20024;-39
2022/05/01 04:55:23;;;;;;;24.08;9.73;;;;;;;;;;5096205;28;20068;-39
2022/05/01 04:57:49;;;;;;;32.78;12.23;;;;;;;;;;5096119;28;20097;-40
2022/05/01 05:00:15;;;;;;;26.77;11.80;;;;;;;;;;5095937;28;20055;-39
2022/05/01 05:02:42;;;;;;;26.50;11.00;;;;;;;;;;5096086;28;20059;-39
2022/05/01 05:05:08;;;;;;;29.30;10.85;;;;;;;;;;5095797;28;20439;-40
2022/05/01 05:07:33;;;;;;;24.63;11.65;;;;;;;;;;5095868;28;20484;-39
2022/05/01 05:09:59;;;;;;;26.85;12.55;;;;;;;;;;5095630;28;20036;-39
2022/05/01 05:12:25;;;;;;;33.30;12.25;;;;;;;;;;5095459;28;20020;-40
2022/05/01 05:14:52;;;;;;;31.50;12.02;;;;;;;;;;5096031;28;20028;-39
2022/05/01 05:17:21;;;;;;;35.90;11.98;;;;;;;;;;5095822;28;20024;-39
2022/05/01 05:19:47;;;;;;;32.78;11.63;;;;;;;;;;5095558;28;20024;-39
2022/05/01 05:22:13;;;;;;;20.52;11.00;;;;;;;;;;5095417;28;20528;-39
2022/05/01 05:24:38;;;;;;;28.15;12.13;;;;;;;;;;5094879;28;20095;-39
2022/05/01 05:27:04;;;;;;;29.48;11.25;;;;;;;;;;5095228;28;20024;-39
2022/05/01 05:29:29;;;;;;;25.10;11.02;;;;;;;;;;5095861;28;20443;-39
2022/05/01 05:31:54;;;;;;;23.60;10.88;;;;;;;;;;5095509;28;20451;-39
2022/05/01 05:34:20;;;;;;;34.55;12.00;;;;;;;;;;5095349;28;20038;-39
2022/05/01 05:36:45;;;;;;;30.10;12.27;;;;;;;;;;5093755;28;20020;-39
2022/05/01 05:39:11;;;;;;;25.23;10.50;;;;;;;;;;5095383;28;20073;-39
2022/05/01 05:41:36;;;;;;;28.88;12.07;;;;;;;;;;5094916;28;20352;-40
2022/05/01 05:44:01;;;;;;;21.55;9.93;;;;;;;;;;5095228;28;20024;-39
2022/05/01 05:46:26;;;;;;;22.67;12.50;;;;;;;;;;5095094;28;20027;-39
2022/05/01 05:48:52;;;;;;;34.88;12.73;;;;;;;;;;5095135;28;20095;-39
2022/05/01 05:51:17;;;;;;;28.85;12.13;;;;;;;;;;5094947;28;20552;-39
2022/05/01 05:53:42;;;;;;;29.80;12.40;;;;;;;;;;5094873;28;20122;-39
2022/05/01 05:56:08;;;;;;;30.58;11.75;;;;;;;;;;5094981;28;20034;-39
2022/05/01 05:58:33;;;;;;;25.20;10.15;;;;;;;;;;5094746;28;20141;-39
2022/05/01 06:00:58;;;;;;;27.00;10.98;;;;;;;;;;5094964;28;20052;-39
2022/05/01 06:03:24;;;;;;;28.23;11.73;;;;;;;;;;5094902;28;20024;-39
2022/05/01 06:05:49;;;;;;;33.72;12.50;;;;;;;;;;5094732;28;20020;-39
2022/05/01 06:08:15;;;;;;;26.45;10.85;;;;;;;;;;5094590;28;20359;-39
2022/05/01 06:10:40;;;;;;;22.85;10.55;;;;;;;;;;5094506;28;20077;-39
2022/05/01 06:13:05;;;;;;;23.85;10.25;;;;;;;;;;5094437;28;20400;-39
2022/05/01 06:15:31;;;;;;;19.40;9.65;;;;;;;;;;5094596;28;20023;-39
2022/05/01 06:17:56;;;;;;;23.47;9.57;;;;;;;;;;5094608;28;20022;-39
2022/05/01 06:20:22;;;;;;;20.58;10.07;;;;;;;;;;5094424;28;20241;-39
2022/05/01 06:22:50;;;;;;;21.40;10.02;;;;;;;;;;5094316;28;20372;-39
2022/05/01 06:25:16;;;;;;;29.33;10.63;;;;;;;;;;5094735;28;20070;-39
2022/05/01 06:27:41;;;;;;;28.55;10.13;;;;;;;;;;5094027;28;20417;-39
2022/05/01 06:30:07;;;;;;;21.98;8.77;;;;;;;;;;5094431;28;20036;-44
2022/05/01 06:32:33;;;;;;;16.08;9.10;;;;;;;;;;5094594;28;20019;-39
2022/05/01 06:34:59;;;;;;;19.00;9.27;;;;;;;;;;5094242;28;20024;-39
2022/05/01 06:37:24;;;;;;;21.88;9.73;;;;;;;;;;5093165;28;20474;-39
2022/05/01 06:39:49;;;;;;;28.05;10.32;;;;;;;;;;5093936;28;20020;-39
2022/05/01 06:42:15;;;;;;;31.50;10.57;;;;;;;;;;5093684;28;20024;-39
2022/05/01 06:44:40;;;;;;;25.73;11.27;;;;;;;;;;5094221;28;20032;-38
2022/05/01 06:47:08;;;;;;;21.67;10.50;;;;;;;;;;5094157;28;20020;-38
2022/05/01 06:49:33;;;;;;;19.08;9.35;;;;;;;;;;5093750;28;20020;-39
2022/05/01 06:51:58;;;;;;;19.77;9.98;;;;;;;;;;5093639;28;20051;-39
2022/05/01 06:54:24;;;;;;;14.27;9.45;;;;;;;;;;5093843;28;20016;-39
2022/05/01 06:56:49;;;;;;;28.73;10.40;;;;;;;;;;5093664;28;20024;-40
2022/05/01 06:59:15;;;;;;;24.52;9.45;;;;;;;;;;5093509;28;20446;-39
2022/05/01 07:01:40;;;;;;;25.42;10.18;;;;;;;;;;5093883;28;20055;-39
2022/05/01 07:04:05;;;;;;;23.92;10.13;;;;;;;;;;5093532;28;20516;-38
2022/05/01 07:06:31;;;;;;;19.23;9.68;;;;;;;;;;5093615;28;20470;-39
2022/05/01 07:08:57;;;;;;;15.13;8.48;;;;;;;;;;5093753;28;20499;-39
2022/05/01 07:11:22;;;;;;;18.50;9.13;;;;;;;;;;5093481;28;20039;-39
2022/05/01 07:13:47;;;;;;;27.45;10.02;;;;;;;;;;5093330;28;20024;-39
2022/05/01 07:16:12;;;;;;;16.97;8.23;;;;;;;;;;5093519;28;20020;-39
2022/05/01 07:18:38;;;;;;;17.33;8.30;;;;;;;;;;5093511;28;20237;-38
2022/05/01 07:21:03;;;;;;;18.90;8.13;;;;;;;;;;5093534;28;20153;-39
2022/05/01 07:23:30;;;;;;;16.50;8.57;;;;;;;;;;5093412;28;20244;-39
2022/05/01 07:25:55;;;;;;;11.25;7.63;;;;;;;;;;5093321;28;20039;-39
2022/05/01 07:28:20;;;;;;;21.38;8.45;;;;;;;;;;5092993;28;20024;-39
2022/05/01 07:30:45;;;;;;;23.35;9.52;;;;;;;;;;5093035;28;20028;-39
2022/05/01 07:33:11;;;;;;;18.30;8.70;;;;;;;;;;5093324;28;20381;-39
2022/05/01 07:35:37;;;;;;;18.55;8.00;;;;;;;;;;5093150;28;20027;-39
2022/05/01 07:38:02;;;;;;;13.10;7.28;;;;;;;;;;5093073;28;20074;-39
2022/05/01 07:40:28;;;;;;;27.33;10.88;;;;;;;;;;5093020;28;20024;-39
2022/05/01 07:42:53;;;;;;;18.05;8.85;;;;;;;;;;5092697;28;20016;-39
2022/05/01 07:45:18;;;;;;;24.85;8.20;;;;;;;;;;5093416;28;20482;-43
2022/05/01 07:47:44;;;;;;;19.42;7.25;;;;;;;;;;5092749;28;20099;-39
2022/05/01 07:50:09;;;;;;;20.35;6.78;;;;;;;;;;5093022;28;20128;-38
2022/05/01 07:52:35;;;;;;;16.27;6.43;;;;;;;;;;5092472;28;20059;-38
2022/05/01 07:55:01;;;;;;;10.63;6.05;;;;;;;;;;5092929;28;20107;-38
2022/05/01 07:57:27;;;;;;;13.35;6.30;;;;;;;;;;5092774;28;20108;-39
2022/05/01 07:59:53;;;;;;;12.98;6.18;;;;;;;;;;5092714;28;20065;-39
2022/05/01 08:02:18;;;;;;;23.90;7.20;;;;;;;;;;5092729;28;20039;-38
2022/05/01 08:04:43;;;;;;;17.23;5.83;;;;;;;;;;5092920;28;20019;-39
2022/05/01 08:07:10;;;;;;;16.30;5.40;;;;;;;;;;5092964;28;20768;-39
2022/05/01 08:09:36;;;;;;;11.57;4.85;;;;;;;;;;5092568;28;20026;-39
2022/05/01 08:12:01;;;;;;;9.63;4.78;;;;;;;;;;5092861;28;20107;-40
2022/05/01 08:14:26;;;;;;;8.00;4.70;;;;;;;;;;5091138;28;20020;-39
2022/05/01 08:16:52;;;;;;;13.95;5.15;;;;;;;;;;5092892;28;20035;-39
2022/05/01 08:22:01;;;;;;;9.48;5.10;;;;;;;;;;5092862;28;20441;-39
2022/05/01 08:24:27;;;;;;;9.45;4.43;;;;;;;;;;5092665;28;20027;-39
2022/05/01 08:26:52;;;;;;;17.50;5.25;;;;;;;;;;5092384;28;20030;-39
2022/05/01 08:29:17;;;;;;;19.40;5.82;;;;;;;;;;5092651;28;20027;-40
2022/05/01 08:31:43;;;;;;;15.68;5.15;;;;;;;;;;5091302;28;20050;-39
2022/05/01 08:34:09;;;;;;;14.30;5.22;;;;;;;;;;5092585;28;20093;-38
2022/05/01 08:36:35;;;;;;;8.10;4.40;;;;;;;;;;5092641;28;20073;-38
2022/05/01 08:39:00;;;;;;;11.38;4.60;;;;;;;;;;5092628;28;20441;-38
2022/05/01 08:41:28;;;;;;;12.23;5.30;;;;;;;;;;5092040;28;20063;-38
2022/05/01 08:43:55;;;;;;;16.35;5.10;;;;;;;;;;5092701;28;20253;-38
2022/05/01 08:46:41;;;;;;;10.63;4.00;;;;;;;;;;5092685;28;20028;-39
2022/05/01 08:49:09;;;;;;;14.38;4.47;;;;;;;;;;5092504;28;20031;-38
2022/05/01 08:51:42;;;;;;;13.73;4.20;;;;;;;;;;5092378;28;20112;-38
2022/05/01 08:54:08;;;;;;;15.50;4.75;;;;;;;;;;5092140;28;20470;-38
2022/05/01 08:56:34;;;;;;;9.32;4.32;;;;;;;;;;5092520;28;20095;-38
2022/05/01 08:59:07;;;;;;;7.05;4.07;;;;;;;;;;5092428;28;20026;-38
2022/05/01 09:01:33;;;;;;;8.73;3.85;;;;;;;;;;5096113;28;20035;-38
2022/05/01 09:03:59;;;;;;;7.63;3.60;;;;;;;;;;5095937;28;20016;-39
2022/05/01 09:06:24;;;;;;;8.35;3.78;;;;;;;;;;5095794;28;20026;-40
2022/05/01 09:08:51;;;;;;;6.22;3.83;;;;;;;;;;5095708;28;20051;-39
2022/05/01 09:14:00;;;;;;;8.30;3.17;;;;;;;;;;5095966;28;20023;-39
2022/05/01 09:16:25;;;;;;;6.20;2.97;;;;;;;;;;5095711;28;20455;-39
2022/05/01 09:18:51;;;;;;;10.77;3.25;;;;;;;;;;5095527;28;20069;-39
2022/05/01 09:21:16;;;;;;;7.95;3.25;;;;;;;;;;5095506;28;20058;-39
2022/05/01 09:23:43;;;;;;;8.23;2.88;;;;;;;;;;5095746;28;20439;-39
2022/05/01 09:26:13;;;;;;;10.00;2.63;;;;;;;;;;5095557;28;20056;-39
2022/05/01 09:28:47;;;;;;;11.95;3.20;;;;;;;;;;5095604;28;20102;-38
2022/05/01 09:31:12;;;;;;;12.43;3.85;;;;;;;;;;5095301;28;20043;-39
2022/05/01 09:33:37;;;;;;;17.40;4.37;;;;;;;;;;5095344;28;20015;-39
2022/05/01 09:36:03;;;;;;;11.00;3.45;;;;;;;;;;5095183;28;20236;-39
2022/05/01 09:38:28;;;;;;;9.27;3.05;;;;;;;;;;5095587;28;20024;-39
2022/05/01 09:40:58;;;;;;;4.35;2.40;;;;;;;;;;5095391;28;20094;-39
2022/05/01 09:43:42;;;;;;;10.38;3.42;;;;;;;;;;5095126;28;20077;-39
2022/05/01 09:46:17;;;;;;;10.00;3.03;;;;;;;;;;5095142;28;20028;-39
2022/05/01 09:49:02;;;;;;;12.57;3.40;;;;;;;;;;5095201;28;20024;-39
2022/05/01 09:51:28;;;;;;;8.93;2.83;;;;;;;;;;5094827;28;20062;-38
2022/05/01 09:53:54;;;;;;;11.88;3.35;;;;;;;;;;5095126;28;20028;-38
2022/05/01 09:56:19;;;;;;;13.65;3.70;;;;;;;;;;5094904;28;20477;-38
2022/05/01 09:58:45;;;;;;;18.30;4.35;;;;;;;;;;5094880;28;20447;-40
2022/05/01 10:01:11;;;;;;;25.88;5.18;;;;;;;;;;5094606;28;20024;-39
2022/05/01 10:03:46;;;;;;;13.18;3.40;;;;;;;;;;5095016;28;20410;-39
2022/05/01 10:06:12;;;;;;;14.73;3.65;;;;;;;;;;5094890;28;20038;-39
2022/05/01 10:08:38;;;;;;;13.23;4.10;;;;;;;;;;5094786;28;20024;-38
2022/05/01 10:11:05;;;;;;;7.35;3.15;;;;;;;;;;5094337;28;20027;-39
2022/05/01 10:13:31;;;;;;;11.55;3.55;;;;;;;;;;5094534;28;20095;-39
2022/05/01 10:15:56;;;;;;;8.40;2.88;;;;;;;;;;5094690;28;20059;-38
2022/05/01 10:18:22;;;;;;;8.23;2.80;;;;;;;;;;5094631;28;20165;-39
2022/05/01 10:20:48;;;;;;;17.33;4.22;;;;;;;;;;5094528;28;20022;-38
2022/05/01 10:23:14;;;;;;;20.48;5.18;;;;;;;;;;5094628;28;20020;-39
2022/05/01 10:25:45;;;;;;;7.75;2.97;;;;;;;;;;5094335;28;20035;-39
2022/05/01 10:28:18;;;;;;;15.45;4.25;;;;;;;;;;5094418;28;20012;-39
2022/05/01 10:34:20;;;;;;;10.70;3.40;;;;;;;;;;5088390;28;20440;-38
2022/05/01 10:36:48;;;;;;;16.65;4.00;;;;;;;;;;5085197;28;20044;-38
2022/05/01 10:39:15;;;;;;;16.38;3.88;;;;;;;;;;5094196;28;20153;-38
2022/05/01 10:41:44;;;;;;;12.43;3.67;;;;;;;;;;5094067;28;20016;-38
2022/05/01 10:44:30;;;;;;;11.45;3.58;;;;;;;;;;5094161;28;20050;-38
2022/05/01 10:47:03;;;;;;;11.55;3.25;;;;;;;;;;5094016;28;20031;-39
2022/05/01 10:49:36;;;;;;;9.02;2.95;;;;;;;;;;5094026;28;20024;-39
2022/05/01 10:52:17;;;;;;;7.25;2.95;;;;;;;;;;5094043;28;20148;-39
2022/05/01 10:54:49;;;;;;;15.05;4.13;;;;;;;;;;5093780;28;20039;-39
2022/05/01 10:57:15;;;;;;;16.70;4.13;;;;;;;;;;5093615;28;20360;-39
2022/05/01 10:59:46;;;;;;;12.60;3.50;;;;;;;;;;5093608;28;20023;-39
2022/05/01 11:02:23;;;;;;;7.72;3.10;;;;;;;;;;5093543;28;20513;-40
2022/05/01 11:04:49;;;;;;;12.85;4.00;;;;;;;;;;5093797;28;20103;-39
2022/05/01 11:07:16;;;;;;;15.80;3.88;;;;;;;;;;5093494;28;20489;-39
2022/05/01 11:09:45;;;;;;;11.32;3.35;;;;;;;;;;5093514;28;20042;-39
2022/05/01 11:12:11;;;;;;;18.30;3.97;;;;;;;;;;5093556;28;20024;-39
2022/05/01 11:14:40;;;;;;;10.27;3.08;;;;;;;;;;5093648;28;20038;-39
2022/05/01 11:17:07;;;;;;;8.32;3.00;;;;;;;;;;5093555;28;20023;-39
2022/05/01 11:19:50;;;;;;;8.85;3.22;;;;;;;;;;5093301;28;20107;-38
2022/05/01 11:22:15;;;;;;;18.40;4.30;;;;;;;;;;5092708;28;20103;-40
2022/05/01 11:24:44;;;;;;;14.45;4.05;;;;;;;;;;5092989;28;20455;-38
2022/05/01 11:27:16;;;;;;;14.25;3.78;;;;;;;;;;5093403;28;20063;-39
2022/05/01 11:30:00;;;;;;;8.90;3.20;;;;;;;;;;5093347;28;20036;-38
2022/05/01 11:32:26;;;;;;;10.30;3.15;;;;;;;;;;5093257;28;20065;-39
2022/05/01 11:34:52;;;;;;;21.17;3.80;;;;;;;;;;5093306;28;20024;-39
2022/05/01 11:37:18;;;;;;;20.95;4.65;;;;;;;;;;5092803;28;20077;-39
2022/05/01 11:39:43;;;;;;;15.15;4.05;;;;;;;;;;5093162;28;20020;-39
2022/05/01 11:42:21;;;;;;;17.15;4.28;;;;;;;;;;5093029;28;20034;-39
2022/05/01 11:44:47;;;;;;;15.05;4.28;;;;;;;;;;5093056;28;20020;-38
2022/05/01 11:47:13;;;;;;;10.32;3.53;;;;;;;;;;5092845;28;20028;-38
2022/05/01 11:49:39;;;;;;;17.85;4.13;;;;;;;;;;5092739;28;20020;-40
2022/05/01 11:52:05;;;;;;;9.00;2.83;;;;;;;;;;5092796;28;20059;-38
2022/05/01 11:54:31;;;;;;;6.57;3.10;;;;;;;;;;5093375;28;20443;-39
2022/05/01 12:02:24;;;;;;;9.32;3.20;;;;;;;;;;5092786;28;20406;-39
2022/05/01 12:04:50;;;;;;;14.95;4.18;;;;;;;;;;5093030;28;20020;-39
2022/05/01 12:07:17;;;;;;;11.73;3.95;;;;;;;;;;5092880;28;20028;-38
2022/05/01 12:09:43;;;;;;;12.68;4.05;;;;;;;;;;5092890;28;20021;-39
2022/05/01 12:12:11;;;;;;;18.10;4.65;;;;;;;;;;5092740;28;20027;-39
2022/05/01 12:14:37;;;;;;;13.45;4.05;;;;;;;;;;5092643;28;20017;-39
2022/05/01 12:17:07;;;;;;;18.92;3.90;;;;;;;;;;5092502;28;20059;-38
2022/05/01 12:19:35;;;;;;;8.68;3.17;;;;;;;;;;5092779;28;20386;-39
2022/05/01 12:22:01;;;;;;;10.98;3.65;;;;;;;;;;5092703;28;20020;-39
2022/05/01 12:24:26;;;;;;;11.52;3.33;;;;;;;;;;5092568;28;20031;-40
2022/05/01 12:26:52;;;;;;;10.05;3.35;;;;;;;;;;5092400;28;20032;-38
2022/05/01 12:29:18;;;;;;;18.73;4.22;;;;;;;;;;5092536;28;20016;-40
2022/05/01 12:32:05;;;;;;;9.27;3.10;;;;;;;;;;5092375;28;20044;-38
2022/05/01 12:34:32;;;;;;;9.98;3.45;;;;;;;;;;5093415;28;20046;-38
2022/05/01 12:36:58;;;;;;;8.52;2.85;;;;;;;;;;5096385;28;20032;-38
2022/05/01 12:39:24;;;;;;;10.93;3.03;;;;;;;;;;5096355;28;20022;-38
2022/05/01 12:45:02;;;;;;;17.70;3.65;;;;;;;;;;5095498;28;20161;-38
2022/05/01 12:47:28;;;;;;;10.48;3.58;;;;;;;;;;5096309;28;20024;-38
2022/05/01 12:49:54;;;;;;;7.32;2.90;;;;;;;;;;5096118;28;20154;-39
2022/05/01 12:52:36;;;;;;;20.92;4.43;;;;;;;;;;5096135;28;20484;-38
2022/05/01 12:55:04;;;;;;;8.40;2.88;;;;;;;;;;5095965;28;20016;-39
2022/05/01 12:57:34;;;;;;;6.60;2.53;;;;;;;;;;5096663;28;20489;-38
2022/05/01 12:59:59;;;;;;;12.80;3.72;;;;;;;;;;5095979;28;20325;-38
2022/05/01 13:02:24;;;;;;;8.18;3.42;;;;;;;;;;5095947;28;20024;-38
2022/05/01 13:04:57;;;;;;;14.63;3.37;;;;;;;;;;5095672;28;20486;-39
2022/05/01 13:07:29;;;;;;;6.40;3.15;;;;;;;;;;5095979;28;20781;-38
2022/05/01 13:09:55;;;;;;;5.93;2.70;;;;;;;;;;5096020;28;20020;-38
2022/05/01 13:12:30;;;;;;;11.48;3.30;;;;;;;;;;5096061;28;20095;-38
2022/05/01 13:15:02;;;;;;;10.25;3.30;;;;;;;;;;5095767;28;20019;-38
2022/05/01 13:17:27;;;;;;;14.48;4.20;;;;;;;;;;5095436;28;20024;-39
2022/05/01 13:19:53;;;;;;;7.15;2.90;;;;;;;;;;5095895;28;20364;-38
2022/05/01 13:22:18;;;;;;;13.65;3.65;;;;;;;;;;5095668;28;20069;-38
2022/05/01 13:24:44;;;;;;;17.38;4.13;;;;;;;;;;5095638;28;20020;-38
2022/05/01 13:27:11;;;;;;;16.20;4.00;;;;;;;;;;5095557;28;20101;-38
2022/05/01 13:29:37;;;;;;;10.02;3.35;;;;;;;;;;5095477;28;20059;-38
2022/05/01 13:32:05;;;;;;;8.60;3.20;;;;;;;;;;5095077;28;20398;-38
2022/05/01 13:34:30;;;;;;;7.65;2.80;;;;;;;;;;5095579;28;20019;-38
2022/05/01 13:36:57;;;;;;;9.68;3.00;;;;;;;;;;5095198;28;20015;-38
2022/05/01 13:39:23;;;;;;;7.78;2.88;;;;;;;;;;5095228;28;20387;-38
2022/05/01 13:44:54;;;;;;;8.30;3.10;;;;;;;;;;5094948;28;20023;-39
2022/05/01 13:47:20;;;;;;;12.27;3.17;;;;;;;;;;5095048;28;20042;-38
2022/05/01 13:49:45;;;;;;;13.15;3.35;;;;;;;;;;5095049;28;20494;-38
2022/05/01 13:52:11;;;;;;;13.18;3.28;;;;;;;;;;5094820;28;20432;-38
2022/05/01 13:54:36;;;;;;;11.20;3.05;;;;;;;;;;5095130;28;20106;-39
2022/05/01 13:57:02;;;;;;;8.68;2.70;;;;;;;;;;5094775;28;20110;-38
2022/05/01 13:59:28;;;;;;;8.20;2.85;;;;;;;;;;5094649;28;20028;-38
2022/05/01 14:01:54;;;;;;;11.00;2.83;;;;;;;;;;5095111;28;20027;-39
2022/05/01 14:04:20;;;;;;;13.65;3.40;;;;;;;;;;5094775;28;20020;-38
2022/05/01 14:06:45;;;;;;;10.65;2.83;;;;;;;;;;5094747;28;20035;-38
2022/05/01 14:09:12;;;;;;;12.63;3.00;;;;;;;;;;5094898;28;20020;-38
2022/05/01 14:11:37;;;;;;;17.23;3.40;;;;;;;;;;5094533;28;20299;-38
2022/05/01 14:14:03;;;;;;;11.57;3.08;;;;;;;;;;5094286;28;20463;-38
2022/05/01 14:16:28;;;;;;;8.38;2.58;;;;;;;;;;5094740;28;20023;-38
2022/05/01 14:18:54;;;;;;;12.00;3.47;;;;;;;;;;5094665;28;20428;-38
2022/05/01 14:21:19;;;;;;;17.33;3.55;;;;;;;;;;5094818;28;20476;-38
2022/05/01 14:23:45;;;;;;;14.45;3.53;;;;;;;;;;5094273;28;20016;-39
2022/05/01 14:26:11;;;;;;;11.88;3.17;;;;;;;;;;5094531;28;20012;-38
2022/05/01 14:28:38;;;;;;;12.27;3.40;;;;;;;;;;5094084;28;20024;-38
2022/05/01 14:31:08;;;;;;;5.70;2.50;;;;;;;;;;5094494;28;20079;-38
2022/05/01 14:33:43;;;;;;;7.75;2.83;;;;;;;;;;5094215;28;20107;-38
2022/05/01 14:36:10;;;;;;;14.25;2.88;;;;;;;;;;5094476;28;20787;-38
2022/05/01 14:38:50;;;;;;;10.23;2.40;;;;;;;;;;5094369;28;20051;-38
2022/05/01 14:41:24;;;;;;;16.27;3.67;;;;;;;;;;5093822;28;20374;-38
2022/05/01 14:43:51;;;;;;;20.83;4.50;;;;;;;;;;5094183;28;20459;-38
2022/05/01 14:46:16;;;;;;;15.98;3.78;;;;;;;;;;5093999;28;20054;-38
2022/05/01 14:49:00;;;;;;;13.05;3.85;;;;;;;;;;5093961;28;20451;-38
2022/05/01 14:51:26;;;;;;;14.75;3.10;;;;;;;;;;5093837;28;20059;-40
2022/05/01 14:53:54;;;;;;;13.10;3.20;;;;;;;;;;5093622;28;20032;-39
2022/05/01 14:56:20;;;;;;;;;;;;;;;;;;5094148;28;20063;-38
2022/05/01 15:07:02;;;;;;;6.88;2.60;;;;;;;;;;5093877;28;20387;-38